MZ-0024 weather

Sussundenga Airport
Sussundenga, Manica Province, Mozambique

Public forecast

Using degrees Celsius for public forecast. Weather courtesy of forecast.io.

Closest aviation weather report (METAR) to Sussundenga Airport

Closest report is Chimoio Airport, 17.5 nm (32.5 km) NNE. Retrieved 2020/05/26 07:00 UTC (2 minutes ago):

FQCH 260700Z /////KT CAVOK 20/15 Q1019

Closest aviation forecast (TAF) to Sussundenga Airport

Forecast is more than 12 hours old.

Closest forecast is Chimoio Airport, 17.5 nm (32.5 km) NNE. Retrieved 2020/05/25 18:00 UTC (13 hours ago):

TAF FQCH 251600Z 2518/2618 08008KT CAVOK TX29/2613Z TN15/2603Z BECMG 2600/2602 01006KT BECMG 2607/2609 31010KT